Time;durP1;ratioP1;P1;durP2;ratioP2;P2;SDS_P1;SDS_P2;PMS_P1;PMS_P2;Temp;Humidity;BMP_temperature;BMP_pressure;BME280_temperature;BME280_humidity;BME280_pressure;Samples;Min_cycle;Max_cycle;Signal;HPM_P1;HPM_P2
2023/10/24 00:02:15;;;;;;;9.47;3.73;;;;;;;;;;5014626;28;20261;-76
2023/10/24 00:04:41;;;;;;;8.83;4.27;;;;;;;;;;5007046;28;20784;-77
2023/10/24 00:07:06;;;;;;;8.40;3.77;;;;;;;;;;5021263;28;20742;-77
2023/10/24 00:09:31;;;;;;;7.70;3.97;;;;;;;;;;5000920;28;20881;-77
2023/10/24 00:11:57;;;;;;;10.13;4.20;;;;;;;;;;4996576;28;20659;-77
2023/10/24 00:14:22;;;;;;;12.60;3.87;;;;;;;;;;4989217;28;20531;-77
2023/10/24 00:16:47;;;;;;;10.47;3.77;;;;;;;;;;5023084;28;20276;-77
2023/10/24 00:19:12;;;;;;;9.93;4.00;;;;;;;;;;5024477;28;20304;-77
2023/10/24 00:21:38;;;;;;;9.53;3.80;;;;;;;;;;4986776;28;20029;-77
2023/10/24 00:24:03;;;;;;;10.40;3.78;;;;;;;;;;5004980;28;20176;-77
2023/10/24 00:26:28;;;;;;;8.55;4.05;;;;;;;;;;5004742;28;20496;-77
2023/10/24 00:28:53;;;;;;;8.87;3.93;;;;;;;;;;5004863;28;20432;-77
2023/10/24 00:31:19;;;;;;;10.23;3.90;;;;;;;;;;5001756;28;23048;-77
2023/10/24 00:33:44;;;;;;;7.40;3.63;;;;;;;;;;5012360;28;20042;-78
2023/10/24 00:36:09;;;;;;;12.48;3.83;;;;;;;;;;5005139;28;20049;-78
2023/10/24 00:38:35;;;;;;;10.00;4.30;;;;;;;;;;4987532;28;20046;-78
2023/10/24 00:41:00;;;;;;;10.02;4.10;;;;;;;;;;5022130;28;20334;-77
2023/10/24 00:43:25;;;;;;;8.03;3.80;;;;;;;;;;5010463;28;20045;-78
2023/10/24 00:45:51;;;;;;;7.50;3.90;;;;;;;;;;5005913;28;20037;-78
2023/10/24 00:48:16;;;;;;;12.00;3.80;;;;;;;;;;4989432;28;20766;-78
2023/10/24 00:50:41;;;;;;;10.90;4.03;;;;;;;;;;4989671;28;20044;-78
2023/10/24 00:53:06;;;;;;;10.90;3.70;;;;;;;;;;4984232;28;20776;-77
2023/10/24 00:55:31;;;;;;;9.60;4.10;;;;;;;;;;5022048;28;20260;-78
2023/10/24 00:57:57;;;;;;;7.90;4.33;;;;;;;;;;4989930;28;20041;-78
2023/10/24 01:00:23;;;;;;;8.87;3.67;;;;;;;;;;5005951;28;20033;-78
2023/10/24 01:02:49;;;;;;;10.07;3.85;;;;;;;;;;5014596;28;20113;-78
2023/10/24 01:05:14;;;;;;;8.63;3.57;;;;;;;;;;4999075;28;20125;-78
2023/10/24 01:07:39;;;;;;;12.40;4.37;;;;;;;;;;4980587;28;20280;-77
2023/10/24 01:10:05;;;;;;;12.20;4.13;;;;;;;;;;4991998;28;20790;-77
2023/10/24 01:12:30;;;;;;;9.95;3.75;;;;;;;;;;5009679;28;20276;-78
2023/10/24 01:14:55;;;;;;;8.93;3.83;;;;;;;;;;4987072;28;20035;-77
2023/10/24 01:17:20;;;;;;;9.37;3.73;;;;;;;;;;5009805;28;20782;-77
2023/10/24 01:19:46;;;;;;;9.17;3.97;;;;;;;;;;5011297;28;20261;-77
2023/10/24 01:22:11;;;;;;;8.97;3.87;;;;;;;;;;5004615;28;20049;-77
2023/10/24 01:24:51;;;;;;;7.85;3.80;;;;;;;;;;4967244;28;20726;-77
2023/10/24 01:27:16;;;;;;;10.97;3.77;;;;;;;;;;5003609;28;20397;-77
2023/10/24 01:29:42;;;;;;;11.55;4.15;;;;;;;;;;4977928;28;20331;-77
2023/10/24 01:32:07;;;;;;;7.57;3.70;;;;;;;;;;5005208;28;20441;-77
2023/10/24 01:34:32;;;;;;;8.30;3.53;;;;;;;;;;4977952;28;20041;-77
2023/10/24 01:36:57;;;;;;;11.57;3.90;;;;;;;;;;5024614;28;20496;-77
2023/10/24 01:39:23;;;;;;;9.27;3.50;;;;;;;;;;5002411;28;20556;-77
2023/10/24 01:41:49;;;;;;;9.13;3.40;;;;;;;;;;5006522;28;20307;-77
2023/10/24 01:44:14;;;;;;;7.75;3.28;;;;;;;;;;5003008;28;20041;-77
2023/10/24 01:46:39;;;;;;;8.33;3.63;;;;;;;;;;4987082;28;20033;-77
2023/10/24 01:49:04;;;;;;;11.80;3.70;;;;;;;;;;5001962;28;20460;-77
2023/10/24 01:51:30;;;;;;;11.20;3.85;;;;;;;;;;5024956;28;20029;-76
2023/10/24 01:53:55;;;;;;;8.80;3.57;;;;;;;;;;5010903;28;20057;-77
2023/10/24 01:56:20;;;;;;;8.48;3.28;;;;;;;;;;5012586;28;20285;-77
2023/10/24 01:58:45;;;;;;;7.63;3.13;;;;;;;;;;5020984;28;20076;-77
2023/10/24 02:01:10;;;;;;;7.83;3.20;;;;;;;;;;4993064;28;20037;-78
2023/10/24 02:03:36;;;;;;;10.10;3.43;;;;;;;;;;4993062;28;20280;-78
2023/10/24 02:06:01;;;;;;;7.77;3.30;;;;;;;;;;5009219;28;20350;-78
2023/10/24 02:08:26;;;;;;;6.90;3.47;;;;;;;;;;4998317;28;20271;-78
2023/10/24 02:10:51;;;;;;;8.00;3.07;;;;;;;;;;5008400;28;20136;-78
2023/10/24 02:13:17;;;;;;;10.77;3.50;;;;;;;;;;5000588;28;20287;-78
2023/10/24 02:15:42;;;;;;;8.57;3.40;;;;;;;;;;4989702;28;20113;-78
2023/10/24 02:18:08;;;;;;;8.38;3.20;;;;;;;;;;4977152;28;20034;-78
2023/10/24 02:20:33;;;;;;;9.25;3.33;;;;;;;;;;5026605;28;20037;-77
2023/10/24 02:22:58;;;;;;;11.03;3.20;;;;;;;;;;5021073;28;20037;-77
2023/10/24 02:25:23;;;;;;;6.70;2.97;;;;;;;;;;5006947;28;20285;-77
2023/10/24 02:27:49;;;;;;;6.77;3.00;;;;;;;;;;4989440;28;20034;-78
2023/10/24 02:30:14;;;;;;;7.40;3.47;;;;;;;;;;4996886;28;20276;-77
2023/10/24 02:32:39;;;;;;;8.93;3.35;;;;;;;;;;5024296;28;20681;-77
2023/10/24 02:35:05;;;;;;;7.53;3.37;;;;;;;;;;5001826;28;20099;-77
2023/10/24 02:37:30;;;;;;;8.07;3.60;;;;;;;;;;5009102;28;20033;-77
2023/10/24 02:39:55;;;;;;;8.50;3.53;;;;;;;;;;5025978;28;20038;-77
2023/10/24 02:42:20;;;;;;;10.23;3.17;;;;;;;;;;5008894;28;20806;-78
2023/10/24 02:44:49;;;;;;;8.43;3.33;;;;;;;;;;5005167;28;20037;-78
2023/10/24 02:47:14;;;;;;;8.90;3.08;;;;;;;;;;4989348;28;20095;-77
2023/10/24 02:49:39;;;;;;;5.75;2.85;;;;;;;;;;5009880;28;20041;-77
2023/10/24 02:52:05;;;;;;;6.80;3.00;;;;;;;;;;5025206;28;20447;-78
2023/10/24 02:54:30;;;;;;;6.97;2.55;;;;;;;;;;4992784;28;20949;-77
2023/10/24 02:56:55;;;;;;;8.53;3.10;;;;;;;;;;4988647;28;20034;-78
2023/10/24 02:59:20;;;;;;;9.87;3.00;;;;;;;;;;5000829;28;20312;-78
2023/10/24 03:01:46;;;;;;;7.05;3.00;;;;;;;;;;5025685;28;20047;-77
2023/10/24 03:04:11;;;;;;;8.50;3.10;;;;;;;;;;5006429;28;20043;-77
2023/10/24 03:06:36;;;;;;;6.60;3.40;;;;;;;;;;5008233;28;20122;-78
2023/10/24 03:09:02;;;;;;;7.90;3.17;;;;;;;;;;5008465;28;20860;-78
2023/10/24 03:11:27;;;;;;;5.55;2.60;;;;;;;;;;5024977;28;20435;-78
2023/10/24 03:13:53;;;;;;;6.20;2.77;;;;;;;;;;4997028;28;20049;-78
2023/10/24 03:16:18;;;;;;;7.00;2.90;;;;;;;;;;5008036;28;20030;-78
2023/10/24 03:18:43;;;;;;;7.43;2.77;;;;;;;;;;5021358;28;20096;-77
2023/10/24 03:21:09;;;;;;;8.13;3.27;;;;;;;;;;5002448;28;20100;-77
2023/10/24 03:23:34;;;;;;;6.75;3.00;;;;;;;;;;4993239;28;20272;-77
2023/10/24 03:25:59;;;;;;;6.80;3.00;;;;;;;;;;5008110;28;20036;-78
2023/10/24 03:28:25;;;;;;;7.32;2.72;;;;;;;;;;5006577;28;20284;-78
2023/10/24 03:30:59;;;;;;;6.87;2.70;;;;;;;;;;5002267;28;20041;-77
2023/10/24 03:33:24;;;;;;;6.63;2.67;;;;;;;;;;4991202;28;20286;-78
2023/10/24 03:35:50;;;;;;;5.93;2.70;;;;;;;;;;4987689;28;20112;-77
2023/10/24 03:38:15;;;;;;;6.43;2.30;;;;;;;;;;5004090;28;20420;-77
2023/10/24 03:40:41;;;;;;;6.83;2.80;;;;;;;;;;5007602;28;20692;-77
2023/10/24 03:43:06;;;;;;;6.22;2.75;;;;;;;;;;5007481;28;20307;-77
2023/10/24 03:45:31;;;;;;;5.60;2.70;;;;;;;;;;4988135;28;20548;-77
2023/10/24 03:47:56;;;;;;;7.47;2.63;;;;;;;;;;5005345;28;20379;-77
2023/10/24 03:50:22;;;;;;;5.73;2.87;;;;;;;;;;4998506;28;20412;-78
2023/10/24 03:52:48;;;;;;;7.43;2.73;;;;;;;;;;5006894;28;20572;-78
2023/10/24 03:55:13;;;;;;;9.73;3.20;;;;;;;;;;5020880;28;20287;-76
2023/10/24 03:57:39;;;;;;;5.28;2.60;;;;;;;;;;5025191;28;20460;-79
2023/10/24 04:00:08;;;;;;;8.38;3.05;;;;;;;;;;5007527;28;20091;-77
2023/10/24 04:02:33;;;;;;;7.00;2.72;;;;;;;;;;4987707;28;20038;-77
2023/10/24 04:04:58;;;;;;;9.17;3.53;;;;;;;;;;5001197;28;20048;-77
2023/10/24 04:07:24;;;;;;;8.03;3.13;;;;;;;;;;5007953;28;20894;-77
2023/10/24 04:09:49;;;;;;;8.93;2.70;;;;;;;;;;5026463;28;20109;-77
2023/10/24 04:12:14;;;;;;;7.23;2.70;;;;;;;;;;5025000;28;20483;-78
2023/10/24 04:14:39;;;;;;;7.53;2.80;;;;;;;;;;5015360;28;20538;-77
2023/10/24 04:17:05;;;;;;;7.63;3.10;;;;;;;;;;5015924;28;20523;-77
2023/10/24 04:19:30;;;;;;;7.38;3.13;;;;;;;;;;5022947;28;20057;-78
2023/10/24 04:21:56;;;;;;;5.27;2.93;;;;;;;;;;5015683;28;20040;-77
2023/10/24 04:24:21;;;;;;;6.20;2.97;;;;;;;;;;5011616;28;20378;-77
2023/10/24 04:26:46;;;;;;;7.22;3.13;;;;;;;;;;4991029;28;20064;-77
2023/10/24 04:29:11;;;;;;;8.20;2.93;;;;;;;;;;5020936;28;20104;-77
2023/10/24 04:31:37;;;;;;;7.73;3.07;;;;;;;;;;5006120;28;20059;-77
2023/10/24 04:34:04;;;;;;;8.10;3.00;;;;;;;;;;5020680;28;20388;-77
2023/10/24 04:36:30;;;;;;;7.15;2.90;;;;;;;;;;4975472;28;20026;-77
2023/10/24 04:38:55;;;;;;;7.95;2.67;;;;;;;;;;5022542;28;20103;-77
2023/10/24 04:41:20;;;;;;;7.20;2.92;;;;;;;;;;5019543;28;20129;-78
2023/10/24 04:43:45;;;;;;;10.00;2.80;;;;;;;;;;5023304;28;20038;-76
2023/10/24 04:46:11;;;;;;;7.47;2.80;;;;;;;;;;5015126;28;20037;-77
2023/10/24 04:48:36;;;;;;;8.23;2.78;;;;;;;;;;5024101;28;20064;-73
2023/10/24 04:51:04;;;;;;;7.27;2.90;;;;;;;;;;5019183;28;20040;-73
2023/10/24 04:53:32;;;;;;;8.90;2.67;;;;;;;;;;4987878;28;20284;-73
2023/10/24 04:55:57;;;;;;;8.35;2.90;;;;;;;;;;4999101;28;20030;-73
2023/10/24 04:58:22;;;;;;;6.73;3.37;;;;;;;;;;5022120;28;20210;-72
2023/10/24 05:00:47;;;;;;;8.77;2.93;;;;;;;;;;4996620;28;20285;-74
2023/10/24 05:03:12;;;;;;;8.73;3.20;;;;;;;;;;5016306;28;20057;-73
2023/10/24 05:05:38;;;;;;;8.33;2.80;;;;;;;;;;5005732;28;20057;-73
2023/10/24 05:08:07;;;;;;;9.00;2.87;;;;;;;;;;5024082;28;20283;-72
2023/10/24 05:10:32;;;;;;;8.52;2.88;;;;;;;;;;5016837;28;20032;-72
2023/10/24 05:12:58;;;;;;;8.17;2.53;;;;;;;;;;5004886;28;20033;-76
2023/10/24 05:15:23;;;;;;;9.20;3.42;;;;;;;;;;4993875;28;20045;-73
2023/10/24 05:17:48;;;;;;;7.60;3.00;;;;;;;;;;4987258;28;20048;-72
2023/10/24 05:20:16;;;;;;;6.20;2.53;;;;;;;;;;5020087;28;20045;-72
2023/10/24 05:22:42;;;;;;;9.63;3.08;;;;;;;;;;5012008;28;20099;-73
2023/10/24 05:25:07;;;;;;;6.93;3.00;;;;;;;;;;5015383;28;20154;-72
2023/10/24 05:27:32;;;;;;;8.57;3.25;;;;;;;;;;4986657;28;20115;-75
2023/10/24 05:29:58;;;;;;;5.05;2.90;;;;;;;;;;4993953;28;20034;-75
2023/10/24 05:32:23;;;;;;;7.93;3.25;;;;;;;;;;4997883;28;20025;-75
2023/10/24 05:34:48;;;;;;;8.30;2.83;;;;;;;;;;4990387;28;20613;-75
2023/10/24 05:37:13;;;;;;;8.07;2.90;;;;;;;;;;5010209;28;20283;-75
2023/10/24 05:39:39;;;;;;;7.03;2.90;;;;;;;;;;5019992;28;20141;-76
2023/10/24 05:42:04;;;;;;;7.47;2.63;;;;;;;;;;5002704;28;20026;-76
2023/10/24 05:44:29;;;;;;;7.82;3.08;;;;;;;;;;5027349;28;20026;-72
2023/10/24 05:46:55;;;;;;;7.40;3.20;;;;;;;;;;5028013;28;20381;-73
2023/10/24 05:49:20;;;;;;;8.75;2.92;;;;;;;;;;5029349;28;20140;-76
2023/10/24 05:51:45;;;;;;;7.67;3.10;;;;;;;;;;5020923;28;20033;-74
2023/10/24 05:54:10;;;;;;;8.27;2.73;;;;;;;;;;4999724;28;20860;-71
2023/10/24 05:56:35;;;;;;;7.87;3.73;;;;;;;;;;5028500;28;20280;-74
2023/10/24 05:59:01;;;;;;;8.70;2.93;;;;;;;;;;4993553;28;20053;-72
2023/10/24 06:01:26;;;;;;;10.30;4.00;;;;;;;;;;4993564;28;20280;-74
2023/10/24 06:03:51;;;;;;;7.55;3.30;;;;;;;;;;5002806;28;20041;-73
2023/10/24 06:06:17;;;;;;;9.10;3.65;;;;;;;;;;5008294;28;20044;-72
2023/10/24 06:08:42;;;;;;;8.32;3.33;;;;;;;;;;5027874;28;20044;-72
2023/10/24 06:11:07;;;;;;;9.50;3.47;;;;;;;;;;5004910;28;20045;-73
2023/10/24 06:13:32;;;;;;;10.20;3.53;;;;;;;;;;5016575;28;20048;-73
2023/10/24 06:16:08;;;;;;;8.07;3.57;;;;;;;;;;5009763;28;20745;-73
2023/10/24 06:18:33;;;;;;;8.10;3.65;;;;;;;;;;5014878;28;20366;-73
2023/10/24 06:20:58;;;;;;;9.52;3.50;;;;;;;;;;5002378;28;20590;-76
2023/10/24 06:23:24;;;;;;;14.03;4.13;;;;;;;;;;5009280;28;20043;-73
2023/10/24 06:25:49;;;;;;;12.70;4.22;;;;;;;;;;5009552;28;20818;-82
2023/10/24 06:28:15;;;;;;;9.20;3.80;;;;;;;;;;5005911;28;20038;-78
2023/10/24 06:30:40;;;;;;;11.17;3.57;;;;;;;;;;5010763;28;20106;-79
2023/10/24 06:33:05;;;;;;;11.07;3.87;;;;;;;;;;4985562;28;20319;-82
2023/10/24 06:35:30;;;;;;;15.60;5.23;;;;;;;;;;5010525;28;20295;-78
2023/10/24 06:37:56;;;;;;;14.17;4.90;;;;;;;;;;5006574;28;20052;-81
2023/10/24 06:40:21;;;;;;;11.88;4.40;;;;;;;;;;5008389;28;20038;-81
2023/10/24 06:42:47;;;;;;;10.70;4.40;;;;;;;;;;4986388;28;20051;-81
2023/10/24 06:45:12;;;;;;;12.97;3.87;;;;;;;;;;4991643;28;20355;-75
2023/10/24 06:47:37;;;;;;;12.10;4.22;;;;;;;;;;5008777;28;20283;-75
2023/10/24 06:50:03;;;;;;;12.48;4.20;;;;;;;;;;5016139;28;20488;-75
2023/10/24 06:52:28;;;;;;;9.75;4.05;;;;;;;;;;5003208;28;20452;-76
2023/10/24 06:54:54;;;;;;;12.40;4.43;;;;;;;;;;5019838;28;20107;-75
2023/10/24 06:57:19;;;;;;;10.47;4.30;;;;;;;;;;5026609;28;20127;-75
2023/10/24 06:59:45;;;;;;;9.87;4.10;;;;;;;;;;4992805;28;20300;-76
2023/10/24 07:02:10;;;;;;;9.82;4.53;;;;;;;;;;4999493;28;20030;-75
2023/10/24 07:04:35;;;;;;;8.73;4.43;;;;;;;;;;5004008;28;20092;-75
2023/10/24 07:07:00;;;;;;;11.83;4.20;;;;;;;;;;5026662;28;20298;-75
2023/10/24 07:09:26;;;;;;;11.13;4.00;;;;;;;;;;4992052;28;20350;-75
2023/10/24 07:11:51;;;;;;;8.02;3.65;;;;;;;;;;5008964;28;20045;-76
2023/10/24 07:14:16;;;;;;;11.40;3.73;;;;;;;;;;5007418;28;20423;-76
2023/10/24 07:16:41;;;;;;;7.63;3.70;;;;;;;;;;5003261;28;20754;-76
2023/10/24 07:19:06;;;;;;;11.20;4.40;;;;;;;;;;5025919;28;20284;-76
2023/10/24 07:21:32;;;;;;;10.03;3.50;;;;;;;;;;5008320;28;20041;-76
2023/10/24 07:23:58;;;;;;;10.35;4.10;;;;;;;;;;5017444;28;20061;-76
2023/10/24 07:26:23;;;;;;;9.18;3.65;;;;;;;;;;5022066;28;20059;-76
2023/10/24 07:28:48;;;;;;;8.80;3.60;;;;;;;;;;5008543;28;20065;-76
2023/10/24 07:31:13;;;;;;;9.35;3.85;;;;;;;;;;5008290;28;20291;-76
2023/10/24 07:33:39;;;;;;;8.80;3.87;;;;;;;;;;5025728;28;20041;-76
2023/10/24 07:36:07;;;;;;;10.95;3.92;;;;;;;;;;5025967;28;20037;-76
2023/10/24 07:38:33;;;;;;;8.38;4.07;;;;;;;;;;4991456;28;20144;-75
2023/10/24 07:40:58;;;;;;;8.07;3.20;;;;;;;;;;5006438;28;20136;-73
2023/10/24 07:43:23;;;;;;;8.70;3.58;;;;;;;;;;4981465;28;20280;-76
2023/10/24 07:45:53;;;;;;;8.15;3.38;;;;;;;;;;5007105;28;20140;-75
2023/10/24 07:48:19;;;;;;;7.88;3.40;;;;;;;;;;5007825;28;20093;-76
2023/10/24 07:50:54;;;;;;;8.52;3.30;;;;;;;;;;5026002;28;20032;-75
2023/10/24 07:53:20;;;;;;;8.18;3.88;;;;;;;;;;4986185;28;20294;-75
2023/10/24 07:55:45;;;;;;;8.27;3.38;;;;;;;;;;5018326;28;20085;-76
2023/10/24 07:58:11;;;;;;;9.00;3.25;;;;;;;;;;5026605;28;20127;-76
2023/10/24 08:00:36;;;;;;;6.83;3.80;;;;;;;;;;5046013;28;20116;-75
2023/10/24 08:03:01;;;;;;;9.97;3.37;;;;;;;;;;5011847;28;20009;-75
2023/10/24 08:05:26;;;;;;;8.80;3.67;;;;;;;;;;5027264;28;20272;-75
2023/10/24 08:07:51;;;;;;;7.00;3.10;;;;;;;;;;5008889;28;20087;-75
2023/10/24 08:10:17;;;;;;;9.67;3.30;;;;;;;;;;5010778;28;20318;-75
2023/10/24 08:12:42;;;;;;;7.80;3.25;;;;;;;;;;5008670;28;20684;-76
2023/10/24 08:15:08;;;;;;;7.68;3.50;;;;;;;;;;4975545;28;20025;-76
2023/10/24 08:17:33;;;;;;;7.72;3.42;;;;;;;;;;5012447;28;20025;-75
2023/10/24 08:19:58;;;;;;;8.83;3.37;;;;;;;;;;5029083;28;20032;-75
2023/10/24 08:22:23;;;;;;;6.85;3.05;;;;;;;;;;5028642;28;20373;-74
2023/10/24 08:24:49;;;;;;;5.87;2.97;;;;;;;;;;5010073;28;20184;-75
2023/10/24 08:27:14;;;;;;;7.53;3.33;;;;;;;;;;5025661;28;20257;-75
2023/10/24 08:29:39;;;;;;;7.50;3.20;;;;;;;;;;5008491;28;20032;-75
2023/10/24 08:32:05;;;;;;;6.40;2.80;;;;;;;;;;5015568;28;20264;-75
2023/10/24 08:34:30;;;;;;;6.97;3.35;;;;;;;;;;5014125;28;20109;-75
2023/10/24 08:36:55;;;;;;;6.35;3.13;;;;;;;;;;4989994;28;20503;-75
2023/10/24 08:39:21;;;;;;;10.35;3.70;;;;;;;;;;5027317;28;20056;-74
2023/10/24 08:41:47;;;;;;;7.40;3.40;;;;;;;;;;5029546;28;20419;-75
2023/10/24 08:44:12;;;;;;;6.43;3.20;;;;;;;;;;5027131;28;20033;-75
2023/10/24 08:46:37;;;;;;;9.02;4.03;;;;;;;;;;4997987;28;20021;-74
2023/10/24 08:49:02;;;;;;;7.50;3.43;;;;;;;;;;5027583;28;20010;-76
2023/10/24 08:51:28;;;;;;;6.33;3.20;;;;;;;;;;5009011;28;20275;-75
2023/10/24 08:53:53;;;;;;;8.47;3.40;;;;;;;;;;5019611;28;20041;-74
2023/10/24 08:56:18;;;;;;;7.10;3.23;;;;;;;;;;5007979;28;20027;-75
2023/10/24 08:58:44;;;;;;;5.17;3.00;;;;;;;;;;5007545;28;20037;-75
2023/10/24 09:01:09;;;;;;;8.15;3.30;;;;;;;;;;5007227;28;20272;-74
2023/10/24 09:03:34;;;;;;;10.65;4.20;;;;;;;;;;5019393;28;20024;-75
2023/10/24 09:05:59;;;;;;;13.80;4.70;;;;;;;;;;5003672;28;20013;-73
2023/10/24 09:08:25;;;;;;;13.27;4.90;;;;;;;;;;4999759;28;20818;-74
2023/10/24 09:10:50;;;;;;;12.93;5.17;;;;;;;;;;4998461;28;20030;-74
2023/10/24 09:13:15;;;;;;;12.52;5.38;;;;;;;;;;5017508;28;20025;-75
2023/10/24 09:15:40;;;;;;;14.00;5.07;;;;;;;;;;5000478;28;20730;-72
2023/10/24 09:18:06;;;;;;;12.10;5.72;;;;;;;;;;4983387;28;20293;-73
2023/10/24 09:20:34;;;;;;;16.83;5.27;;;;;;;;;;5025349;28;20096;-74
2023/10/24 09:23:06;;;;;;;15.30;5.55;;;;;;;;;;5026794;28;20867;-74
2023/10/24 09:25:31;;;;;;;21.40;6.68;;;;;;;;;;5010410;28;20037;-74
2023/10/24 09:28:13;;;;;;;17.92;6.25;;;;;;;;;;5011116;28;20041;-74
2023/10/24 09:30:39;;;;;;;21.30;6.22;;;;;;;;;;5005545;28;20037;-75
2023/10/24 09:33:04;;;;;;;19.00;6.15;;;;;;;;;;5010748;28;20094;-75
2023/10/24 09:35:29;;;;;;;16.53;5.90;;;;;;;;;;5027167;28;20045;-78
2023/10/24 09:37:54;;;;;;;20.37;6.60;;;;;;;;;;5003923;28;20041;-77
2023/10/24 09:40:20;;;;;;;16.17;5.93;;;;;;;;;;5009726;28;20913;-79
2023/10/24 09:42:45;;;;;;;18.37;6.33;;;;;;;;;;5012865;28;20343;-79
2023/10/24 09:45:10;;;;;;;18.93;5.67;;;;;;;;;;4991464;28;20323;-80
2023/10/24 09:47:35;;;;;;;15.83;5.43;;;;;;;;;;5008750;28;20030;-75
2023/10/24 09:50:01;;;;;;;15.27;5.10;;;;;;;;;;5021933;28;20284;-73
2023/10/24 09:52:27;;;;;;;18.35;5.85;;;;;;;;;;5023245;28;20042;-75
2023/10/24 09:54:52;;;;;;;14.98;6.00;;;;;;;;;;5024787;28;20522;-75
2023/10/24 09:57:18;;;;;;;13.48;5.40;;;;;;;;;;4984118;28;20045;-73
2023/10/24 09:59:47;;;;;;;14.95;5.60;;;;;;;;;;5003213;28;20053;-76
2023/10/24 10:02:17;;;;;;;18.02;5.72;;;;;;;;;;5024565;28;20048;-75
2023/10/24 10:04:43;;;;;;;13.73;5.40;;;;;;;;;;5022820;28;20107;-76
2023/10/24 10:07:09;;;;;;;13.30;5.95;;;;;;;;;;5009933;28;20041;-74
2023/10/24 10:09:35;;;;;;;16.10;5.38;;;;;;;;;;5022277;28;20077;-75
2023/10/24 10:12:01;;;;;;;18.00;5.07;;;;;;;;;;5002456;28;20432;-75
2023/10/24 10:14:29;;;;;;;21.50;5.82;;;;;;;;;;5020438;28;21792;-75
2023/10/24 10:17:01;;;;;;;15.02;5.25;;;;;;;;;;5003218;28;20477;-75
2023/10/24 10:19:47;;;;;;;13.38;5.30;;;;;;;;;;5021528;28;20581;-75
2023/10/24 10:22:13;;;;;;;14.10;5.40;;;;;;;;;;5003537;28;20164;-75
2023/10/24 10:24:57;;;;;;;16.50;6.05;;;;;;;;;;5002986;28;20190;-74
2023/10/24 10:27:22;;;;;;;17.00;5.55;;;;;;;;;;5020861;28;20033;-74
2023/10/24 10:29:47;;;;;;;18.00;5.80;;;;;;;;;;5018595;28;20416;-72
2023/10/24 10:32:15;;;;;;;18.17;5.43;;;;;;;;;;4998567;28;20488;-72
2023/10/24 10:34:42;;;;;;;18.30;5.93;;;;;;;;;;5018567;28;20300;-73
2023/10/24 10:37:08;;;;;;;14.88;5.30;;;;;;;;;;5001154;28;20038;-72
2023/10/24 10:39:33;;;;;;;18.95;5.38;;;;;;;;;;4998455;28;20046;-72
2023/10/24 10:41:58;;;;;;;16.92;5.90;;;;;;;;;;4999665;28;20120;-72
2023/10/24 10:44:33;;;;;;;19.00;5.43;;;;;;;;;;5018920;28;20100;-72
2023/10/24 10:46:59;;;;;;;18.00;5.60;;;;;;;;;;4999561;28;20058;-72
2023/10/24 10:49:25;;;;;;;15.20;5.60;;;;;;;;;;5006903;28;20038;-72
2023/10/24 10:51:51;;;;;;;20.08;5.82;;;;;;;;;;5004984;28;20120;-72
2023/10/24 10:54:17;;;;;;;19.20;5.80;;;;;;;;;;5010053;28;20141;-72
2023/10/24 10:56:43;;;;;;;14.82;5.38;;;;;;;;;;4998060;28;20042;-72
2023/10/24 10:59:08;;;;;;;14.75;5.90;;;;;;;;;;5004820;28;20060;-73
2023/10/24 11:01:33;;;;;;;17.30;6.03;;;;;;;;;;5015218;28;20389;-72
2023/10/24 11:03:59;;;;;;;15.47;4.93;;;;;;;;;;5016447;28;20688;-72
2023/10/24 11:06:25;;;;;;;19.17;5.50;;;;;;;;;;4997574;28;20519;-73
2023/10/24 11:09:10;;;;;;;13.80;4.85;;;;;;;;;;5002453;28;20030;-72
2023/10/24 11:11:37;;;;;;;14.45;5.47;;;;;;;;;;5016848;28;20045;-72
2023/10/24 11:14:15;;;;;;;13.55;4.28;;;;;;;;;;4982758;28;20021;-72
2023/10/24 11:16:41;;;;;;;19.55;5.13;;;;;;;;;;4983395;28;20037;-72
2023/10/24 11:19:06;;;;;;;16.02;4.80;;;;;;;;;;5013849;28;20582;-73
2023/10/24 11:21:31;;;;;;;16.03;5.23;;;;;;;;;;5017266;28;20056;-73
2023/10/24 11:23:59;;;;;;;16.67;4.97;;;;;;;;;;5015570;28;20280;-73
2023/10/24 11:26:25;;;;;;;11.60;4.90;;;;;;;;;;5000018;28;20072;-72
2023/10/24 11:28:51;;;;;;;15.43;5.20;;;;;;;;;;4980065;28;20049;-72
2023/10/24 11:31:23;;;;;;;14.80;4.38;;;;;;;;;;5012471;28;20041;-72
2023/10/24 11:33:48;;;;;;;14.60;4.72;;;;;;;;;;4987494;28;20068;-72
2023/10/24 11:36:13;;;;;;;18.63;5.10;;;;;;;;;;5018101;28;20045;-72
2023/10/24 11:38:39;;;;;;;15.40;4.47;;;;;;;;;;5018473;28;20052;-73
2023/10/24 11:41:05;;;;;;;15.67;4.50;;;;;;;;;;5006238;28;20537;-73
2023/10/24 11:43:32;;;;;;;13.82;4.88;;;;;;;;;;4988052;28;20030;-73
2023/10/24 11:45:57;;;;;;;13.75;4.22;;;;;;;;;;4988555;28;20064;-72
2023/10/24 11:48:22;;;;;;;16.15;4.13;;;;;;;;;;4994467;28;20499;-72
2023/10/24 11:50:48;;;;;;;15.63;4.00;;;;;;;;;;5025677;28;20100;-72
2023/10/24 11:53:20;;;;;;;16.37;4.83;;;;;;;;;;5025506;28;20042;-72
2023/10/24 11:55:46;;;;;;;14.55;4.03;;;;;;;;;;4988818;28;20277;-72
2023/10/24 11:58:30;;;;;;;13.27;3.90;;;;;;;;;;5007460;28;20107;-72
2023/10/24 12:00:57;;;;;;;14.02;3.83;;;;;;;;;;5026820;28;20068;-72
2023/10/24 12:03:23;;;;;;;11.73;3.85;;;;;;;;;;5033743;28;20483;-72
2023/10/24 12:05:52;;;;;;;11.50;3.77;;;;;;;;;;5015651;28;20034;-72
2023/10/24 12:08:21;;;;;;;11.77;3.70;;;;;;;;;;5010379;28;20292;-73
2023/10/24 12:10:51;;;;;;;10.25;3.50;;;;;;;;;;4989555;28;20107;-73
2023/10/24 12:13:16;;;;;;;12.25;3.80;;;;;;;;;;4991207;28;20040;-72
2023/10/24 12:15:42;;;;;;;15.10;4.17;;;;;;;;;;4990436;28;20105;-71
2023/10/24 12:18:07;;;;;;;16.50;3.97;;;;;;;;;;5004494;28;20129;-72
2023/10/24 12:20:32;;;;;;;16.83;4.33;;;;;;;;;;5008742;28;20065;-72
2023/10/24 12:22:57;;;;;;;13.47;3.73;;;;;;;;;;5007269;28;20393;-73
2023/10/24 12:25:23;;;;;;;14.57;3.60;;;;;;;;;;5029130;28;20793;-73
2023/10/24 12:27:48;;;;;;;11.10;3.60;;;;;;;;;;5027237;28;20695;-72
2023/10/24 12:30:13;;;;;;;12.23;3.88;;;;;;;;;;5003657;28;20029;-73
2023/10/24 12:32:39;;;;;;;12.75;3.75;;;;;;;;;;5006718;28;20037;-72
2023/10/24 12:35:06;;;;;;;13.40;3.53;;;;;;;;;;5014230;28;20591;-72
2023/10/24 12:37:31;;;;;;;12.57;3.50;;;;;;;;;;5006187;28;20036;-72
2023/10/24 12:39:57;;;;;;;10.13;3.13;;;;;;;;;;4997229;28;20046;-73
2023/10/24 12:42:22;;;;;;;13.17;3.60;;;;;;;;;;5007401;28;20033;-72
2023/10/24 12:44:47;;;;;;;11.37;3.93;;;;;;;;;;4987144;28;20379;-72
2023/10/24 12:47:12;;;;;;;12.50;3.43;;;;;;;;;;4986796;28;20132;-72
2023/10/24 12:49:37;;;;;;;14.13;3.40;;;;;;;;;;5014144;28;20128;-72
2023/10/24 12:52:03;;;;;;;8.77;3.30;;;;;;;;;;5023048;28;20716;-72
2023/10/24 12:54:28;;;;;;;9.65;2.80;;;;;;;;;;5006345;28;20284;-72
2023/10/24 12:56:53;;;;;;;13.37;3.60;;;;;;;;;;5017043;28;20107;-72
2023/10/24 12:59:19;;;;;;;9.37;3.03;;;;;;;;;;5000740;28;20082;-72
2023/10/24 13:01:44;;;;;;;12.17;3.23;;;;;;;;;;5023976;28;20821;-72
2023/10/24 13:04:09;;;;;;;13.07;3.40;;;;;;;;;;5005748;28;20053;-71
2023/10/24 13:06:34;;;;;;;12.20;3.40;;;;;;;;;;5009093;28;20342;-72
2023/10/24 13:09:01;;;;;;;13.50;3.30;;;;;;;;;;5021448;28;20285;-71
2023/10/24 13:11:26;;;;;;;10.48;3.45;;;;;;;;;;5005283;28;20041;-72
2023/10/24 13:13:51;;;;;;;11.67;3.20;;;;;;;;;;5019584;28;20147;-72
2023/10/24 13:16:17;;;;;;;11.00;3.40;;;;;;;;;;5003530;28;20304;-72
2023/10/24 13:18:42;;;;;;;16.13;3.60;;;;;;;;;;4988955;28;20053;-71
2023/10/24 13:21:07;;;;;;;10.23;3.40;;;;;;;;;;5024498;28;20040;-72
2023/10/24 13:23:32;;;;;;;10.57;3.70;;;;;;;;;;5022745;28;20038;-72
2023/10/24 13:25:58;;;;;;;16.07;3.50;;;;;;;;;;5023834;28;20059;-72
2023/10/24 13:28:25;;;;;;;14.07;4.03;;;;;;;;;;5005568;28;20308;-72
2023/10/24 13:30:50;;;;;;;15.27;4.10;;;;;;;;;;5007784;28;20507;-72
2023/10/24 13:33:15;;;;;;;14.93;3.80;;;;;;;;;;5003959;28;20133;-72
2023/10/24 13:35:40;;;;;;;14.83;4.53;;;;;;;;;;5006709;28;20148;-72
2023/10/24 13:38:06;;;;;;;9.83;4.10;;;;;;;;;;5017553;28;20046;-73
2023/10/24 13:40:31;;;;;;;13.73;3.85;;;;;;;;;;4993747;28;20729;-75
2023/10/24 13:42:57;;;;;;;12.13;3.93;;;;;;;;;;4996316;28;20479;-74
2023/10/24 13:45:22;;;;;;;10.00;3.93;;;;;;;;;;5023858;28;20498;-74
2023/10/24 13:47:47;;;;;;;14.40;3.92;;;;;;;;;;5009873;28;20710;-73
2023/10/24 13:50:13;;;;;;;11.13;4.28;;;;;;;;;;5013701;28;20045;-74
2023/10/24 13:52:38;;;;;;;10.30;3.50;;;;;;;;;;5037224;28;20037;-74
2023/10/24 13:55:04;;;;;;;12.47;3.80;;;;;;;;;;5035000;28;20029;-73
2023/10/24 13:57:29;;;;;;;15.73;3.97;;;;;;;;;;5000404;28;20042;-75
2023/10/24 13:59:55;;;;;;;12.63;3.13;;;;;;;;;;5022254;28;20056;-79
2023/10/24 14:02:20;;;;;;;15.35;3.60;;;;;;;;;;5001081;28;20037;-73
2023/10/24 14:04:45;;;;;;;13.03;3.40;;;;;;;;;;5032347;28;20057;-72
2023/10/24 14:07:11;;;;;;;12.40;3.00;;;;;;;;;;5028988;28;20523;-73
2023/10/24 14:09:36;;;;;;;10.93;3.22;;;;;;;;;;5025730;28;20479;-75
2023/10/24 14:12:01;;;;;;;13.93;3.22;;;;;;;;;;4995085;28;20057;-80
2023/10/24 14:14:28;;;;;;;9.82;3.20;;;;;;;;;;5031167;28;20033;-79
2023/10/24 14:16:54;;;;;;;13.70;3.58;;;;;;;;;;5023562;28;20037;-75
2023/10/24 14:19:19;;;;;;;16.67;3.23;;;;;;;;;;5026520;28;20056;-77
2023/10/24 14:21:44;;;;;;;14.23;3.55;;;;;;;;;;5011107;28;20311;-72
2023/10/24 14:24:09;;;;;;;10.73;3.43;;;;;;;;;;5011068;28;20124;-78
2023/10/24 14:26:35;;;;;;;16.43;5.13;;;;;;;;;;5003136;28;20297;-73
2023/10/24 14:29:00;;;;;;;9.88;3.22;;;;;;;;;;5024466;28;20289;-72